Time;durP1;ratioP1;P1;durP2;ratioP2;P2;SDS_P1;SDS_P2;PMS_P1;PMS_P2;Temp;Humidity;BMP_temperature;BMP_pressure;BME280_temperature;BME280_humidity;BME280_pressure;Samples;Min_cycle;Max_cycle;Signal;HPM_P1;HPM_P2
2023/08/06 00:02:16;;;;;;;5.53;2.80;;;;;;;;;;5028064;28;20420;-77
2023/08/06 00:04:41;;;;;;;3.55;2.25;;;;;;;;;;5028424;28;20283;-78
2023/08/06 00:07:06;;;;;;;3.45;2.45;;;;;;;;;;5016590;28;20029;-77
2023/08/06 00:09:31;;;;;;;6.45;2.45;;;;;;;;;;5024006;28;20025;-78
2023/08/06 00:11:57;;;;;;;2.92;1.85;;;;;;;;;;5023530;28;20049;-78
2023/08/06 00:14:22;;;;;;;4.15;2.65;;;;;;;;;;5031954;28;20108;-77
2023/08/06 00:16:47;;;;;;;2.80;1.52;;;;;;;;;;5033873;28;20084;-77
2023/08/06 00:19:12;;;;;;;3.03;1.90;;;;;;;;;;5033470;28;20092;-77
2023/08/06 00:21:38;;;;;;;4.57;2.10;;;;;;;;;;5009557;28;20042;-77
2023/08/06 00:24:03;;;;;;;3.38;2.20;;;;;;;;;;5025518;28;20034;-77
2023/08/06 00:26:28;;;;;;;2.85;1.85;;;;;;;;;;5025719;28;20242;-77
2023/08/06 00:28:53;;;;;;;3.55;1.90;;;;;;;;;;5023590;28;20392;-77
2023/08/06 00:31:19;;;;;;;3.80;2.00;;;;;;;;;;5024135;28;20029;-77
2023/08/06 00:33:44;;;;;;;4.18;2.22;;;;;;;;;;5025296;28;20040;-78
2023/08/06 00:36:09;;;;;;;5.13;2.28;;;;;;;;;;5025809;28;20037;-78
2023/08/06 00:38:35;;;;;;;3.88;2.10;;;;;;;;;;5027589;28;20084;-78
2023/08/06 00:41:00;;;;;;;5.38;2.30;;;;;;;;;;5025313;28;20053;-78
2023/08/06 00:43:25;;;;;;;4.28;2.47;;;;;;;;;;5026854;28;20044;-78
2023/08/06 00:45:50;;;;;;;3.90;2.72;;;;;;;;;;5025514;28;20304;-77
2023/08/06 00:48:16;;;;;;;4.25;2.80;;;;;;;;;;5026122;28;20033;-78
2023/08/06 00:50:41;;;;;;;5.10;3.15;;;;;;;;;;5025526;28;20037;-77
2023/08/06 00:53:06;;;;;;;3.97;2.67;;;;;;;;;;5025211;28;20060;-78
2023/08/06 00:55:32;;;;;;;4.40;2.83;;;;;;;;;;5037933;28;20037;-77
2023/08/06 00:57:58;;;;;;;5.95;3.30;;;;;;;;;;5022754;28;20046;-77
2023/08/06 01:00:24;;;;;;;5.72;3.53;;;;;;;;;;5025412;28;20026;-78
2023/08/06 01:02:49;;;;;;;5.18;3.80;;;;;;;;;;5042046;28;20034;-78
2023/08/06 01:05:14;;;;;;;7.80;4.25;;;;;;;;;;5029064;28;20061;-78
2023/08/06 01:07:55;;;;;;;6.05;4.32;;;;;;;;;;5029487;28;20064;-78
2023/08/06 01:10:45;;;;;;;4.57;3.85;;;;;;;;;;5037347;28;20034;-78
2023/08/06 01:13:22;;;;;;;6.32;4.18;;;;;;;;;;5024006;28;20034;-77
2023/08/06 01:15:50;;;;;;;5.10;3.55;;;;;;;;;;5030815;28;20053;-78
2023/08/06 01:18:16;;;;;;;5.25;3.80;;;;;;;;;;5026714;28;20034;-78
2023/08/06 01:20:41;;;;;;;4.80;3.95;;;;;;;;;;5026964;28;20048;-78
2023/08/06 01:23:06;;;;;;;6.65;3.85;;;;;;;;;;5041606;28;20060;-77
2023/08/06 01:25:55;;;;;;;4.35;3.55;;;;;;;;;;5025981;28;20060;-77
2023/08/06 01:28:27;;;;;;;4.38;3.25;;;;;;;;;;4997956;28;20129;-78
2023/08/06 01:30:54;;;;;;;5.13;3.40;;;;;;;;;;5034487;28;20026;-77
2023/08/06 01:33:21;;;;;;;5.45;3.97;;;;;;;;;;5029692;28;20038;-77
2023/08/06 01:35:47;;;;;;;4.57;2.88;;;;;;;;;;5035155;28;20029;-77
2023/08/06 01:38:13;;;;;;;4.93;2.95;;;;;;;;;;5034634;28;20030;-78
2023/08/06 01:40:38;;;;;;;4.78;3.13;;;;;;;;;;5027882;28;20057;-77
2023/08/06 01:43:03;;;;;;;5.10;3.20;;;;;;;;;;5028239;28;20037;-77
2023/08/06 01:45:28;;;;;;;4.90;3.65;;;;;;;;;;5034129;28;20045;-78
2023/08/06 01:47:54;;;;;;;5.80;3.20;;;;;;;;;;5016227;28;20026;-77
2023/08/06 01:50:19;;;;;;;5.25;3.80;;;;;;;;;;5019327;28;20036;-77
2023/08/06 01:52:44;;;;;;;5.25;4.00;;;;;;;;;;5029624;28;20037;-77
2023/08/06 01:55:09;;;;;;;5.30;3.75;;;;;;;;;;5022117;28;20097;-77
2023/08/06 01:57:34;;;;;;;5.22;4.05;;;;;;;;;;5030314;28;20048;-77
2023/08/06 02:00:00;;;;;;;7.57;4.07;;;;;;;;;;5028959;28;20050;-77
2023/08/06 02:02:25;;;;;;;5.85;3.75;;;;;;;;;;5031192;28;20396;-77
2023/08/06 02:04:50;;;;;;;6.00;4.43;;;;;;;;;;5023843;28;20473;-77
2023/08/06 02:07:15;;;;;;;5.25;4.40;;;;;;;;;;5037602;28;20032;-77
2023/08/06 02:09:41;;;;;;;5.78;4.25;;;;;;;;;;5029208;28;20112;-77
2023/08/06 02:12:07;;;;;;;5.25;4.15;;;;;;;;;;5023926;28;20528;-77
2023/08/06 02:14:32;;;;;;;6.30;3.92;;;;;;;;;;5023482;28;20552;-77
2023/08/06 02:16:58;;;;;;;5.95;4.20;;;;;;;;;;5028782;28;20037;-77
2023/08/06 02:19:24;;;;;;;5.13;4.03;;;;;;;;;;5020969;28;20022;-77
2023/08/06 02:21:49;;;;;;;6.00;4.47;;;;;;;;;;5022552;28;20477;-77
2023/08/06 02:24:15;;;;;;;4.90;4.00;;;;;;;;;;5037491;28;20038;-77
2023/08/06 02:26:40;;;;;;;4.80;3.55;;;;;;;;;;5021980;28;20030;-77
2023/08/06 02:29:05;;;;;;;5.07;3.70;;;;;;;;;;5021396;28;20038;-77
2023/08/06 02:31:30;;;;;;;5.32;3.65;;;;;;;;;;5021442;28;20030;-77
2023/08/06 02:33:58;;;;;;;6.45;3.80;;;;;;;;;;5030410;28;20034;-77
2023/08/06 02:36:23;;;;;;;4.68;3.78;;;;;;;;;;5022780;28;20361;-77
2023/08/06 02:38:49;;;;;;;5.28;3.97;;;;;;;;;;5022073;28;20029;-77
2023/08/06 02:41:15;;;;;;;5.03;3.78;;;;;;;;;;5037717;28;20034;-77
2023/08/06 02:43:40;;;;;;;7.10;5.05;;;;;;;;;;5023365;28;20040;-77
2023/08/06 02:46:06;;;;;;;4.60;4.00;;;;;;;;;;5021396;28;20113;-76
2023/08/06 02:48:31;;;;;;;5.30;3.78;;;;;;;;;;5021538;28;20481;-77
2023/08/06 02:50:57;;;;;;;7.13;4.38;;;;;;;;;;5021269;28;20032;-77
2023/08/06 02:53:22;;;;;;;5.57;3.33;;;;;;;;;;5029290;28;20026;-77
2023/08/06 02:55:49;;;;;;;5.35;4.22;;;;;;;;;;5023768;28;20025;-77
2023/08/06 02:58:21;;;;;;;5.13;3.35;;;;;;;;;;5037568;28;20133;-77
2023/08/06 03:01:05;;;;;;;4.95;3.72;;;;;;;;;;5037054;28;20058;-77
2023/08/06 03:03:34;;;;;;;5.80;4.32;;;;;;;;;;5041081;28;20041;-77
2023/08/06 03:06:01;;;;;;;6.28;3.47;;;;;;;;;;5039655;28;20030;-77
2023/08/06 03:08:35;;;;;;;5.05;3.60;;;;;;;;;;5030095;28;20036;-77
2023/08/06 03:11:01;;;;;;;5.45;3.60;;;;;;;;;;5029541;28;20090;-77
2023/08/06 03:13:27;;;;;;;5.85;3.60;;;;;;;;;;5022767;28;20036;-78
2023/08/06 03:15:54;;;;;;;4.63;3.40;;;;;;;;;;5038819;28;20038;-77
2023/08/06 03:18:19;;;;;;;5.40;4.03;;;;;;;;;;5031256;28;20060;-77
2023/08/06 03:20:44;;;;;;;4.95;3.38;;;;;;;;;;5022335;28;20038;-77
2023/08/06 03:23:12;;;;;;;4.60;3.33;;;;;;;;;;5039016;28;20026;-78
2023/08/06 03:25:37;;;;;;;4.75;3.38;;;;;;;;;;5023278;28;20022;-77
2023/08/06 03:28:03;;;;;;;7.68;3.85;;;;;;;;;;5022931;28;20512;-77
2023/08/06 03:30:29;;;;;;;5.55;3.25;;;;;;;;;;5021930;28;20053;-78
2023/08/06 03:32:54;;;;;;;5.75;4.28;;;;;;;;;;5022875;28;20030;-77
2023/08/06 03:35:20;;;;;;;4.78;3.45;;;;;;;;;;5030828;28;20037;-77
2023/08/06 03:37:53;;;;;;;7.28;4.22;;;;;;;;;;5038909;28;20400;-78
2023/08/06 03:40:19;;;;;;;6.60;4.13;;;;;;;;;;5032291;28;20014;-78
2023/08/06 03:42:45;;;;;;;5.03;3.70;;;;;;;;;;5027522;28;20030;-78
2023/08/06 03:45:10;;;;;;;5.05;3.58;;;;;;;;;;5027035;28;20050;-78
2023/08/06 03:47:38;;;;;;;4.68;3.65;;;;;;;;;;5026788;28;20018;-78
2023/08/06 03:50:03;;;;;;;6.00;3.38;;;;;;;;;;5027939;28;20025;-77
2023/08/06 03:52:29;;;;;;;6.65;3.47;;;;;;;;;;5044461;28;20029;-78
2023/08/06 03:54:54;;;;;;;4.65;3.33;;;;;;;;;;5028861;28;20038;-78
2023/08/06 03:57:19;;;;;;;6.50;4.13;;;;;;;;;;5022890;28;20036;-78
2023/08/06 03:59:45;;;;;;;5.10;3.78;;;;;;;;;;5037539;28;20073;-78
2023/08/06 04:02:10;;;;;;;4.72;3.55;;;;;;;;;;5013828;28;20489;-79
2023/08/06 04:04:35;;;;;;;4.75;3.17;;;;;;;;;;5014434;28;20033;-79
2023/08/06 04:07:00;;;;;;;5.82;4.20;;;;;;;;;;5029746;28;20028;-78
2023/08/06 04:09:28;;;;;;;4.93;4.03;;;;;;;;;;5014279;28;20100;-79
2023/08/06 04:11:54;;;;;;;4.15;2.95;;;;;;;;;;5030547;28;20042;-78
2023/08/06 04:14:19;;;;;;;5.40;4.20;;;;;;;;;;5014143;28;20037;-79
2023/08/06 04:16:45;;;;;;;6.28;3.90;;;;;;;;;;5014826;28;20120;-79
2023/08/06 04:19:10;;;;;;;4.43;3.30;;;;;;;;;;5013822;28;20101;-78
2023/08/06 04:21:35;;;;;;;5.60;4.15;;;;;;;;;;5029492;28;20093;-78
2023/08/06 04:24:00;;;;;;;6.03;4.78;;;;;;;;;;5022528;28;20109;-78
2023/08/06 04:26:26;;;;;;;4.80;4.13;;;;;;;;;;5012757;28;20143;-78
2023/08/06 04:28:51;;;;;;;5.20;3.70;;;;;;;;;;5011931;28;20780;-79
2023/08/06 04:31:16;;;;;;;4.18;3.40;;;;;;;;;;5013491;28;20501;-78
2023/08/06 04:33:43;;;;;;;5.50;3.63;;;;;;;;;;5029392;28;20118;-78
2023/08/06 04:36:11;;;;;;;7.32;3.70;;;;;;;;;;5014305;28;20034;-78
2023/08/06 04:38:37;;;;;;;5.15;3.20;;;;;;;;;;5012949;28;20177;-78
2023/08/06 04:41:03;;;;;;;5.07;4.18;;;;;;;;;;5016342;28;20065;-78
2023/08/06 04:43:28;;;;;;;4.70;3.53;;;;;;;;;;5033341;28;20034;-78
2023/08/06 04:45:55;;;;;;;5.82;4.03;;;;;;;;;;5032324;28;20033;-78
2023/08/06 04:48:20;;;;;;;6.57;4.25;;;;;;;;;;5024666;28;20042;-78
2023/08/06 04:50:46;;;;;;;7.75;4.75;;;;;;;;;;5025059;28;20025;-78
2023/08/06 04:53:11;;;;;;;5.60;4.25;;;;;;;;;;5008025;28;20407;-78
2023/08/06 04:55:36;;;;;;;6.50;5.03;;;;;;;;;;5017922;28;20061;-78
2023/08/06 04:58:01;;;;;;;6.93;4.43;;;;;;;;;;5025433;28;20037;-78
2023/08/06 05:00:27;;;;;;;6.25;4.88;;;;;;;;;;5016495;28;20030;-78
2023/08/06 05:02:52;;;;;;;5.90;4.30;;;;;;;;;;5016696;28;20038;-78
2023/08/06 05:05:17;;;;;;;5.45;4.20;;;;;;;;;;5024954;28;20034;-78
2023/08/06 05:07:43;;;;;;;6.20;4.30;;;;;;;;;;5017860;28;20030;-79
2023/08/06 05:10:08;;;;;;;6.13;4.07;;;;;;;;;;5015928;28;20022;-78
2023/08/06 05:12:33;;;;;;;5.78;4.05;;;;;;;;;;5017056;28;20064;-78
2023/08/06 05:14:58;;;;;;;5.38;4.10;;;;;;;;;;5016841;28;20030;-79
2023/08/06 05:17:24;;;;;;;5.57;3.92;;;;;;;;;;5017356;28;20045;-78
2023/08/06 05:19:49;;;;;;;6.32;4.15;;;;;;;;;;5015960;28;20057;-78
2023/08/06 05:22:14;;;;;;;5.20;3.58;;;;;;;;;;5016564;28;20033;-78
2023/08/06 05:24:39;;;;;;;5.07;3.75;;;;;;;;;;5016747;28;20022;-78
2023/08/06 05:27:05;;;;;;;5.80;3.80;;;;;;;;;;5016666;28;20076;-78
2023/08/06 05:29:30;;;;;;;5.13;4.45;;;;;;;;;;5016006;28;20113;-78
2023/08/06 05:31:55;;;;;;;5.78;4.30;;;;;;;;;;5012851;28;20168;-78
2023/08/06 05:34:20;;;;;;;4.95;4.10;;;;;;;;;;5016189;28;20160;-78
2023/08/06 05:36:46;;;;;;;6.45;4.40;;;;;;;;;;5024600;28;20404;-78
2023/08/06 05:39:11;;;;;;;4.82;3.88;;;;;;;;;;5019202;28;20041;-78
2023/08/06 05:41:36;;;;;;;5.22;4.00;;;;;;;;;;5018140;28;20030;-78
2023/08/06 05:44:01;;;;;;;5.60;3.90;;;;;;;;;;5017658;28;20061;-79
2023/08/06 05:46:26;;;;;;;4.80;3.90;;;;;;;;;;5017242;28;20288;-78
2023/08/06 05:48:52;;;;;;;11.77;4.00;;;;;;;;;;5017096;28;20033;-79
2023/08/06 05:51:17;;;;;;;4.90;3.33;;;;;;;;;;5017485;28;20026;-79
2023/08/06 05:53:42;;;;;;;4.78;3.83;;;;;;;;;;5017162;28;20711;-78
2023/08/06 05:56:08;;;;;;;5.00;3.28;;;;;;;;;;5023159;28;20034;-78
2023/08/06 05:58:33;;;;;;;4.57;3.20;;;;;;;;;;5031983;28;20408;-79
2023/08/06 06:00:58;;;;;;;4.05;3.05;;;;;;;;;;5015803;28;20500;-79
2023/08/06 06:03:23;;;;;;;3.65;2.72;;;;;;;;;;5019709;28;20037;-78
2023/08/06 06:05:49;;;;;;;4.38;3.33;;;;;;;;;;5019545;28;20065;-79
2023/08/06 06:08:14;;;;;;;3.87;2.80;;;;;;;;;;5018041;28;20030;-79
2023/08/06 06:10:39;;;;;;;4.68;2.92;;;;;;;;;;5019380;28;20767;-79
2023/08/06 06:13:04;;;;;;;4.63;2.63;;;;;;;;;;5019973;28;20037;-79
2023/08/06 06:15:29;;;;;;;4.88;2.40;;;;;;;;;;5032157;28;20034;-79
2023/08/06 06:17:55;;;;;;;4.10;2.92;;;;;;;;;;5016752;28;20107;-79
2023/08/06 06:20:20;;;;;;;4.82;2.88;;;;;;;;;;5033990;28;20033;-79
2023/08/06 06:22:45;;;;;;;4.15;2.95;;;;;;;;;;5019723;28;20030;-79
2023/08/06 06:25:10;;;;;;;3.95;2.63;;;;;;;;;;5021963;28;20030;-79
2023/08/06 06:27:36;;;;;;;3.85;2.75;;;;;;;;;;5023987;28;20029;-78
2023/08/06 06:30:01;;;;;;;4.60;2.90;;;;;;;;;;5018867;28;20637;-78
2023/08/06 06:32:26;;;;;;;3.90;2.38;;;;;;;;;;5015981;28;20022;-78
2023/08/06 06:34:52;;;;;;;3.03;2.03;;;;;;;;;;5035809;28;20030;-79
2023/08/06 06:37:17;;;;;;;4.10;2.70;;;;;;;;;;5018544;28;20026;-78
2023/08/06 06:39:42;;;;;;;3.50;2.30;;;;;;;;;;5014914;28;20424;-78
2023/08/06 06:42:07;;;;;;;3.22;2.40;;;;;;;;;;5016634;28;20396;-79
2023/08/06 06:44:37;;;;;;;3.70;2.50;;;;;;;;;;5014979;28;20058;-79
2023/08/06 06:47:02;;;;;;;3.53;2.55;;;;;;;;;;5015695;28;20400;-77
2023/08/06 06:49:27;;;;;;;3.55;2.53;;;;;;;;;;5021722;28;20492;-78
2023/08/06 06:51:53;;;;;;;3.63;2.50;;;;;;;;;;5006331;28;20033;-78
2023/08/06 06:54:18;;;;;;;3.40;2.43;;;;;;;;;;5016402;28;20292;-78
2023/08/06 06:56:43;;;;;;;4.25;2.58;;;;;;;;;;5024054;28;20323;-79
2023/08/06 06:59:08;;;;;;;3.58;2.70;;;;;;;;;;5016457;28;20037;-79
2023/08/06 07:01:34;;;;;;;3.45;2.58;;;;;;;;;;5016715;28;20099;-79
2023/08/06 07:03:59;;;;;;;4.75;3.70;;;;;;;;;;5015831;28;20038;-80
2023/08/06 07:06:24;;;;;;;3.80;2.63;;;;;;;;;;5009101;28;20049;-78
2023/08/06 07:08:49;;;;;;;4.45;3.10;;;;;;;;;;4999029;28;20113;-78
2023/08/06 07:11:15;;;;;;;4.00;3.30;;;;;;;;;;5005961;28;20034;-77
2023/08/06 07:13:40;;;;;;;3.97;3.08;;;;;;;;;;5012736;28;20316;-77
2023/08/06 07:16:06;;;;;;;3.30;2.55;;;;;;;;;;5009504;28;20033;-79
2023/08/06 07:18:31;;;;;;;5.43;2.92;;;;;;;;;;5014714;28;20048;-78
2023/08/06 07:20:56;;;;;;;3.10;2.53;;;;;;;;;;5022330;28;20408;-78
2023/08/06 07:23:22;;;;;;;4.57;3.03;;;;;;;;;;5029294;28;20045;-78
2023/08/06 07:25:47;;;;;;;3.92;2.88;;;;;;;;;;5014779;28;20030;-79
2023/08/06 07:28:13;;;;;;;3.45;2.95;;;;;;;;;;5015188;28;20137;-79
2023/08/06 07:30:39;;;;;;;4.03;2.85;;;;;;;;;;5033031;28;20027;-79
2023/08/06 07:33:04;;;;;;;3.80;2.67;;;;;;;;;;5011317;28;20021;-78
2023/08/06 07:35:29;;;;;;;4.18;3.10;;;;;;;;;;5014839;28;20065;-79
2023/08/06 07:37:54;;;;;;;4.90;3.00;;;;;;;;;;5015206;28;20061;-79
2023/08/06 07:40:19;;;;;;;3.50;2.70;;;;;;;;;;5022444;28;20041;-79
2023/08/06 07:42:45;;;;;;;4.25;3.08;;;;;;;;;;5015738;28;20064;-78
2023/08/06 07:45:11;;;;;;;3.65;2.65;;;;;;;;;;5012651;28;20076;-79
2023/08/06 07:47:36;;;;;;;3.50;2.83;;;;;;;;;;5015945;28;20080;-79
2023/08/06 07:50:01;;;;;;;3.25;2.38;;;;;;;;;;5015522;28;20034;-79
2023/08/06 07:52:26;;;;;;;3.80;3.03;;;;;;;;;;5014810;28;20758;-79
2023/08/06 07:54:52;;;;;;;3.40;2.72;;;;;;;;;;5015959;28;20026;-78
2023/08/06 07:57:17;;;;;;;3.92;3.03;;;;;;;;;;5017083;28;20025;-78
2023/08/06 07:59:42;;;;;;;5.85;3.70;;;;;;;;;;5009443;28;20027;-79
2023/08/06 08:02:07;;;;;;;3.88;2.85;;;;;;;;;;5015523;28;20088;-79
2023/08/06 08:04:33;;;;;;;4.30;3.33;;;;;;;;;;5017147;28;20034;-79
2023/08/06 08:06:58;;;;;;;3.50;2.47;;;;;;;;;;5014918;28;20026;-79
2023/08/06 08:09:23;;;;;;;3.70;2.40;;;;;;;;;;5014463;28;20276;-79
2023/08/06 08:11:50;;;;;;;4.30;3.13;;;;;;;;;;5019583;28;20022;-79
2023/08/06 08:14:15;;;;;;;4.57;3.05;;;;;;;;;;5017298;28;20542;-79
2023/08/06 08:16:40;;;;;;;4.85;3.10;;;;;;;;;;5025011;28;20030;-79
2023/08/06 08:19:06;;;;;;;3.93;2.60;;;;;;;;;;5026250;28;20053;-79
2023/08/06 08:21:31;;;;;;;4.35;2.80;;;;;;;;;;5017686;28;20261;-80
2023/08/06 08:23:56;;;;;;;4.67;3.30;;;;;;;;;;5013940;28;20083;-79
2023/08/06 08:26:21;;;;;;;5.60;3.40;;;;;;;;;;5017748;28;20644;-79
2023/08/06 08:28:47;;;;;;;3.47;2.67;;;;;;;;;;5012492;28;20092;-79
2023/08/06 08:31:12;;;;;;;4.70;3.30;;;;;;;;;;5032486;28;20025;-79
2023/08/06 08:33:37;;;;;;;4.30;3.07;;;;;;;;;;5016767;28;20045;-79
2023/08/06 08:36:03;;;;;;;5.07;3.65;;;;;;;;;;5018328;28;20292;-79
2023/08/06 08:38:28;;;;;;;4.55;3.45;;;;;;;;;;5025325;28;20029;-79
2023/08/06 08:40:53;;;;;;;4.90;3.42;;;;;;;;;;5010675;28;20598;-79
2023/08/06 08:43:21;;;;;;;3.97;3.08;;;;;;;;;;5014364;28;20034;-79
2023/08/06 08:45:49;;;;;;;6.15;3.90;;;;;;;;;;5018082;28;20072;-79
2023/08/06 08:48:15;;;;;;;5.68;4.43;;;;;;;;;;5017206;28;20037;-79
2023/08/06 08:50:42;;;;;;;6.00;4.45;;;;;;;;;;5016673;28;20034;-79
2023/08/06 08:53:08;;;;;;;4.47;3.70;;;;;;;;;;5017508;28;20037;-79
2023/08/06 08:55:33;;;;;;;5.65;3.72;;;;;;;;;;5016011;28;20416;-79
2023/08/06 08:57:58;;;;;;;5.40;4.03;;;;;;;;;;5032857;28;20037;-79
2023/08/06 09:00:24;;;;;;;5.07;4.33;;;;;;;;;;5027001;28;20041;-79
2023/08/06 09:02:49;;;;;;;5.22;4.25;;;;;;;;;;5017537;28;20289;-79
2023/08/06 09:05:15;;;;;;;5.60;4.28;;;;;;;;;;5026644;28;20113;-79
2023/08/06 09:07:45;;;;;;;4.75;4.00;;;;;;;;;;5016591;28;20030;-79
2023/08/06 09:10:13;;;;;;;5.65;4.10;;;;;;;;;;5012937;28;20038;-79
2023/08/06 09:12:38;;;;;;;6.22;4.70;;;;;;;;;;5032161;28;20126;-79
2023/08/06 09:15:04;;;;;;;6.25;4.80;;;;;;;;;;5015562;28;20107;-79
2023/08/06 09:17:29;;;;;;;4.85;4.30;;;;;;;;;;5015478;28;20045;-80
2023/08/06 09:19:55;;;;;;;5.47;4.63;;;;;;;;;;5015101;28;20084;-79
2023/08/06 09:22:20;;;;;;;5.17;4.67;;;;;;;;;;5016917;28;20819;-79
2023/08/06 09:24:45;;;;;;;5.43;4.25;;;;;;;;;;5013026;28;20354;-78
2023/08/06 09:27:14;;;;;;;6.25;4.30;;;;;;;;;;5011030;28;20033;-79
2023/08/06 09:29:40;;;;;;;6.25;5.03;;;;;;;;;;5015855;28;20041;-79
2023/08/06 09:32:05;;;;;;;5.13;3.90;;;;;;;;;;5016729;28;20030;-79
2023/08/06 09:34:30;;;;;;;5.85;4.75;;;;;;;;;;5016285;28;20037;-79
2023/08/06 09:36:56;;;;;;;5.82;4.65;;;;;;;;;;5015872;28;20124;-80
2023/08/06 09:39:22;;;;;;;5.22;3.90;;;;;;;;;;5015608;28;20089;-79
2023/08/06 09:41:50;;;;;;;5.72;4.63;;;;;;;;;;5016019;28;20033;-79
2023/08/06 09:44:19;;;;;;;5.55;4.93;;;;;;;;;;5030073;28;20030;-79
2023/08/06 09:46:57;;;;;;;6.63;5.22;;;;;;;;;;5016435;28;20080;-80
2023/08/06 09:49:42;;;;;;;5.63;4.78;;;;;;;;;;5028206;28;20041;-79
2023/08/06 09:52:11;;;;;;;5.93;5.03;;;;;;;;;;5016675;28;20038;-79
2023/08/06 09:54:37;;;;;;;6.03;5.28;;;;;;;;;;5026180;28;20034;-79
2023/08/06 09:57:02;;;;;;;6.35;4.78;;;;;;;;;;5015920;28;20060;-79
2023/08/06 09:59:28;;;;;;;7.60;6.07;;;;;;;;;;5029959;28;20045;-79
2023/08/06 10:01:53;;;;;;;7.15;6.13;;;;;;;;;;5034782;28;20034;-79
2023/08/06 10:04:20;;;;;;;8.90;6.60;;;;;;;;;;5019165;28;20022;-79
2023/08/06 10:06:48;;;;;;;7.13;6.15;;;;;;;;;;5022777;28;20556;-80
2023/08/06 10:09:13;;;;;;;7.00;6.30;;;;;;;;;;5024041;28;20034;-79
2023/08/06 10:11:39;;;;;;;6.95;5.60;;;;;;;;;;5017852;28;20030;-79
2023/08/06 10:14:08;;;;;;;7.22;6.03;;;;;;;;;;5033803;28;20041;-79
2023/08/06 10:16:34;;;;;;;7.90;6.35;;;;;;;;;;5014042;28;20041;-79
2023/08/06 10:18:59;;;;;;;7.03;6.32;;;;;;;;;;5018048;28;20038;-79
2023/08/06 10:21:27;;;;;;;9.13;7.20;;;;;;;;;;5033365;28;20030;-78
2023/08/06 10:23:55;;;;;;;6.97;5.90;;;;;;;;;;5033896;28;20042;-79
2023/08/06 10:26:24;;;;;;;5.93;5.30;;;;;;;;;;5018998;28;20034;-79
2023/08/06 10:28:49;;;;;;;7.35;5.45;;;;;;;;;;5011672;28;20515;-79
2023/08/06 10:31:15;;;;;;;7.20;6.50;;;;;;;;;;5015971;28;20030;-79
2023/08/06 10:33:44;;;;;;;7.00;5.00;;;;;;;;;;5015548;28;20033;-78
2023/08/06 10:36:10;;;;;;;6.03;5.00;;;;;;;;;;5027380;28;20284;-79
2023/08/06 10:38:43;;;;;;;5.93;5.32;;;;;;;;;;5013516;28;20092;-79
2023/08/06 10:41:14;;;;;;;7.53;5.85;;;;;;;;;;5020961;28;20087;-79
2023/08/06 10:43:39;;;;;;;6.13;5.13;;;;;;;;;;5021837;28;20570;-78
2023/08/06 10:46:20;;;;;;;8.50;6.00;;;;;;;;;;5014821;28;20030;-79
2023/08/06 10:48:45;;;;;;;8.00;6.03;;;;;;;;;;5009711;28;20041;-79
2023/08/06 10:51:12;;;;;;;7.43;6.15;;;;;;;;;;5014441;28;20029;-79
2023/08/06 10:53:37;;;;;;;7.13;6.43;;;;;;;;;;5014213;28;20033;-81
2023/08/06 10:56:11;;;;;;;9.00;7.97;;;;;;;;;;5014011;28;20036;-80
2023/08/06 10:58:37;;;;;;;10.30;8.02;;;;;;;;;;5013994;28;20038;-80
2023/08/06 11:01:02;;;;;;;11.00;9.90;;;;;;;;;;5013622;28;20107;-80
2023/08/06 11:03:27;;;;;;;10.80;9.50;;;;;;;;;;5014535;28;20403;-81
2023/08/06 11:05:53;;;;;;;11.85;10.35;;;;;;;;;;5029668;28;20489;-80
2023/08/06 11:08:27;;;;;;;13.20;10.23;;;;;;;;;;5014100;28;20651;-80
2023/08/06 11:10:53;;;;;;;13.95;12.23;;;;;;;;;;5010061;28;20030;-80
2023/08/06 11:13:19;;;;;;;15.20;12.13;;;;;;;;;;5015819;28;20377;-81
2023/08/06 11:15:45;;;;;;;12.75;10.88;;;;;;;;;;5016298;28;20088;-79
2023/08/06 11:18:10;;;;;;;19.42;15.70;;;;;;;;;;5016916;28;20121;-78
2023/08/06 11:20:36;;;;;;;18.38;15.02;;;;;;;;;;5015607;28;20451;-79
2023/08/06 11:23:02;;;;;;;14.65;12.82;;;;;;;;;;5017203;28;20056;-79
2023/08/06 11:25:28;;;;;;;12.90;10.32;;;;;;;;;;5032205;28;20089;-79
2023/08/06 11:27:53;;;;;;;19.55;14.88;;;;;;;;;;5016516;28;20409;-78
2023/08/06 11:30:18;;;;;;;15.17;13.57;;;;;;;;;;5030032;28;20026;-80
2023/08/06 11:32:49;;;;;;;15.15;12.57;;;;;;;;;;5014363;28;20268;-79
2023/08/06 11:35:15;;;;;;;10.98;8.60;;;;;;;;;;5013669;28;20058;-79
2023/08/06 11:37:43;;;;;;;11.48;8.43;;;;;;;;;;5018701;28;20508;-80
2023/08/06 11:40:10;;;;;;;7.05;5.80;;;;;;;;;;5013032;28;20100;-80
2023/08/06 11:42:36;;;;;;;6.55;4.88;;;;;;;;;;5020189;28;20073;-79
2023/08/06 11:45:02;;;;;;;6.05;5.40;;;;;;;;;;5019932;28;20128;-78
2023/08/06 11:47:27;;;;;;;11.25;4.78;;;;;;;;;;5020246;28;20164;-79
2023/08/06 11:49:52;;;;;;;7.05;4.80;;;;;;;;;;5012284;28;20034;-79
2023/08/06 11:52:19;;;;;;;6.57;4.32;;;;;;;;;;5028551;28;20125;-79
2023/08/06 11:54:48;;;;;;;9.63;4.93;;;;;;;;;;5012997;28;20424;-79
2023/08/06 11:57:13;;;;;;;5.72;5.05;;;;;;;;;;5009619;28;20030;-78
2023/08/06 11:59:39;;;;;;;5.97;5.32;;;;;;;;;;5012849;28;20488;-79
2023/08/06 12:02:05;;;;;;;6.47;5.30;;;;;;;;;;5011823;28;20034;-79
2023/08/06 12:04:31;;;;;;;7.80;4.93;;;;;;;;;;5018716;28;20563;-79
2023/08/06 12:07:04;;;;;;;6.75;5.07;;;;;;;;;;5013307;28;20026;-79
2023/08/06 12:09:29;;;;;;;7.25;5.43;;;;;;;;;;5024051;28;20112;-79
2023/08/06 12:11:54;;;;;;;6.55;4.00;;;;;;;;;;5017875;28;20058;-79
2023/08/06 12:14:19;;;;;;;6.63;4.53;;;;;;;;;;5013789;28;20489;-79
2023/08/06 12:16:44;;;;;;;6.03;4.93;;;;;;;;;;5015171;28;20029;-79
2023/08/06 12:19:10;;;;;;;5.35;3.88;;;;;;;;;;5014123;28;20403;-79
2023/08/06 12:21:35;;;;;;;5.75;4.25;;;;;;;;;;5031238;28;20045;-79
2023/08/06 12:24:00;;;;;;;6.30;4.70;;;;;;;;;;5016979;28;20032;-79
2023/08/06 12:26:25;;;;;;;7.20;5.67;;;;;;;;;;5023721;28;20739;-79
2023/08/06 12:28:50;;;;;;;5.30;4.57;;;;;;;;;;5017120;28;20278;-79
2023/08/06 12:31:16;;;;;;;6.43;5.30;;;;;;;;;;5018098;28;20339;-79
2023/08/06 12:33:41;;;;;;;6.32;4.95;;;;;;;;;;5016293;28;20054;-79
2023/08/06 12:36:06;;;;;;;5.65;4.90;;;;;;;;;;5018153;28;20037;-79
2023/08/06 12:38:33;;;;;;;5.93;5.32;;;;;;;;;;5019173;28;20034;-79
2023/08/06 12:40:58;;;;;;;7.47;6.68;;;;;;;;;;5017911;28;20041;-79
2023/08/06 12:43:24;;;;;;;6.10;5.45;;;;;;;;;;5019887;28;20045;-79
2023/08/06 12:45:49;;;;;;;6.93;5.18;;;;;;;;;;5019779;28;20113;-78
2023/08/06 12:48:14;;;;;;;6.30;4.87;;;;;;;;;;5022058;28;20164;-82
2023/08/06 12:50:39;;;;;;;6.77;5.73;;;;;;;;;;5013883;28;20283;-82
2023/08/06 12:53:05;;;;;;;6.70;5.25;;;;;;;;;;5036489;28;20277;-79
2023/08/06 12:55:30;;;;;;;5.10;4.13;;;;;;;;;;5017128;28;20345;-79
2023/08/06 12:57:55;;;;;;;6.97;5.13;;;;;;;;;;5020997;28;20034;-79
2023/08/06 13:00:21;;;;;;;7.13;5.20;;;;;;;;;;5021637;28;20291;-79
2023/08/06 13:02:46;;;;;;;5.70;4.55;;;;;;;;;;5039026;28;20281;-79
2023/08/06 13:05:11;;;;;;;5.87;4.90;;;;;;;;;;5026509;28;20030;-79
2023/08/06 13:07:36;;;;;;;6.72;5.47;;;;;;;;;;5025157;28;20280;-78
2023/08/06 13:10:01;;;;;;;7.20;5.07;;;;;;;;;;5025738;28;20481;-81
2023/08/06 13:12:27;;;;;;;6.30;4.78;;;;;;;;;;5015973;28;20287;-79
2023/08/06 13:14:52;;;;;;;6.10;4.85;;;;;;;;;;5022529;28;20025;-79
2023/08/06 13:17:18;;;;;;;6.15;5.47;;;;;;;;;;5006563;28;20101;-80
2023/08/06 13:19:44;;;;;;;7.05;4.80;;;;;;;;;;5012495;28;20520;-80
2023/08/06 13:22:09;;;;;;;6.85;5.70;;;;;;;;;;5023383;28;20030;-80
2023/08/06 13:24:35;;;;;;;6.45;5.15;;;;;;;;;;5007652;28;20046;-80
2023/08/06 13:27:00;;;;;;;5.90;4.63;;;;;;;;;;5019495;28;20028;-81
2023/08/06 13:29:26;;;;;;;6.68;5.22;;;;;;;;;;5006292;28;20034;-81
2023/08/06 13:31:52;;;;;;;7.05;4.63;;;;;;;;;;5026140;28;20161;-80
2023/08/06 13:34:17;;;;;;;5.82;4.95;;;;;;;;;;5013649;28;20505;-81
2023/08/06 13:36:42;;;;;;;6.22;4.95;;;;;;;;;;5012596;28;20065;-79
2023/08/06 13:39:08;;;;;;;6.32;5.18;;;;;;;;;;5025675;28;20053;-81
2023/08/06 13:41:33;;;;;;;6.53;4.72;;;;;;;;;;5003241;28;20062;-80
2023/08/06 13:43:58;;;;;;;5.65;4.80;;;;;;;;;;5002070;28;20493;-80
2023/08/06 13:46:24;;;;;;;9.38;5.95;;;;;;;;;;5007006;28;20026;-81
2023/08/06 13:48:50;;;;;;;6.13;4.63;;;;;;;;;;5002204;28;20038;-80
2023/08/06 13:51:16;;;;;;;6.00;4.90;;;;;;;;;;5006572;28;20092;-82
2023/08/06 13:53:41;;;;;;;6.13;4.05;;;;;;;;;;5031664;28;20453;-81
2023/08/06 13:56:07;;;;;;;5.60;4.70;;;;;;;;;;5016607;28;20029;-81
2023/08/06 13:58:32;;;;;;;5.55;4.63;;;;;;;;;;5016759;28;20396;-81
2023/08/06 14:00:57;;;;;;;5.85;3.88;;;;;;;;;;5016848;28;20026;-81
2023/08/06 14:03:23;;;;;;;5.95;4.28;;;;;;;;;;5034485;28;20034;-80
2023/08/06 14:05:48;;;;;;;8.00;5.03;;;;;;;;;;5018834;28;20033;-80
2023/08/06 14:08:14;;;;;;;4.95;3.45;;;;;;;;;;5015789;28;20026;-81
2023/08/06 14:10:39;;;;;;;7.65;3.97;;;;;;;;;;5025521;28;20030;-81
2023/08/06 14:13:04;;;;;;;4.50;3.65;;;;;;;;;;5016776;28;20552;-79
2023/08/06 14:15:29;;;;;;;6.22;3.22;;;;;;;;;;5017155;28;20101;-80
2023/08/06 14:17:54;;;;;;;4.20;3.33;;;;;;;;;;5017830;28;20064;-79
2023/08/06 14:20:20;;;;;;;5.73;3.67;;;;;;;;;;5018199;28;20295;-80
2023/08/06 14:22:45;;;;;;;3.93;3.13;;;;;;;;;;5014296;28;20273;-80
2023/08/06 14:25:10;;;;;;;5.05;3.58;;;;;;;;;;5003606;28;20276;-79
2023/08/06 14:27:35;;;;;;;5.05;3.22;;;;;;;;;;5017102;28;20037;-79
2023/08/06 14:30:02;;;;;;;3.50;2.88;;;;;;;;;;5032095;28;20025;-80
2023/08/06 14:32:28;;;;;;;3.80;2.55;;;;;;;;;;5025213;28;20022;-79
2023/08/06 14:34:53;;;;;;;5.57;3.20;;;;;;;;;;5017042;28;20017;-80